sensor_id;sensor_type;location;lat;lon;timestamp;P1;durP1;ratioP1;P2;durP2;ratioP2
37955;SDS011;23776;51.592;7.180;2023-04-30T00:01:07;14.85;;;8.15;;
37955;SDS011;23776;51.592;7.180;2023-04-30T00:03:32;21.77;;;8.75;;
37955;SDS011;23776;51.592;7.180;2023-04-30T00:05:58;14.48;;;8.77;;
37955;SDS011;23776;51.592;7.180;2023-04-30T00:08:24;21.02;;;9.18;;
37955;SDS011;23776;51.592;7.180;2023-04-30T00:10:50;17.40;;;8.68;;
37955;SDS011;23776;51.592;7.180;2023-04-30T00:13:15;18.08;;;8.30;;
37955;SDS011;23776;51.592;7.180;2023-04-30T00:15:42;16.58;;;8.75;;
37955;SDS011;23776;51.592;7.180;2023-04-30T00:18:08;18.90;;;9.00;;
37955;SDS011;23776;51.592;7.180;2023-04-30T00:20:33;20.38;;;9.52;;
37955;SDS011;23776;51.592;7.180;2023-04-30T00:22:59;18.73;;;8.77;;
37955;SDS011;23776;51.592;7.180;2023-04-30T00:25:25;17.05;;;9.27;;
37955;SDS011;23776;51.592;7.180;2023-04-30T00:27:51;15.90;;;8.10;;
37955;SDS011;23776;51.592;7.180;2023-04-30T00:30:16;20.40;;;9.65;;
37955;SDS011;23776;51.592;7.180;2023-04-30T00:32:42;15.40;;;9.00;;
37955;SDS011;23776;51.592;7.180;2023-04-30T00:35:09;16.92;;;8.88;;
37955;SDS011;23776;51.592;7.180;2023-04-30T00:37:35;17.75;;;9.23;;
37955;SDS011;23776;51.592;7.180;2023-04-30T00:40:01;16.60;;;9.15;;
37955;SDS011;23776;51.592;7.180;2023-04-30T00:42:27;16.55;;;10.07;;
37955;SDS011;23776;51.592;7.180;2023-04-30T00:44:52;16.85;;;8.15;;
37955;SDS011;23776;51.592;7.180;2023-04-30T00:47:18;13.60;;;8.13;;
37955;SDS011;23776;51.592;7.180;2023-04-30T00:49:43;18.15;;;8.70;;
37955;SDS011;23776;51.592;7.180;2023-04-30T00:52:09;14.88;;;8.60;;
37955;SDS011;23776;51.592;7.180;2023-04-30T00:54:35;15.40;;;8.65;;
37955;SDS011;23776;51.592;7.180;2023-04-30T00:57:01;21.83;;;9.10;;
37955;SDS011;23776;51.592;7.180;2023-04-30T00:59:29;16.00;;;9.60;;
37955;SDS011;23776;51.592;7.180;2023-04-30T01:01:56;20.92;;;10.20;;
37955;SDS011;23776;51.592;7.180;2023-04-30T01:04:21;19.13;;;10.23;;
37955;SDS011;23776;51.592;7.180;2023-04-30T01:06:48;20.25;;;9.82;;
37955;SDS011;23776;51.592;7.180;2023-04-30T01:09:13;15.80;;;9.27;;
37955;SDS011;23776;51.592;7.180;2023-04-30T01:14:28;18.48;;;8.88;;
37955;SDS011;23776;51.592;7.180;2023-04-30T01:17:24;19.95;;;9.30;;
37955;SDS011;23776;51.592;7.180;2023-04-30T01:19:55;18.25;;;8.82;;
37955;SDS011;23776;51.592;7.180;2023-04-30T01:25:06;18.50;;;8.63;;
37955;SDS011;23776;51.592;7.180;2023-04-30T01:30:39;17.45;;;9.88;;
37955;SDS011;23776;51.592;7.180;2023-04-30T01:33:08;16.38;;;9.10;;
37955;SDS011;23776;51.592;7.180;2023-04-30T01:46:39;17.45;;;9.35;;
37955;SDS011;23776;51.592;7.180;2023-04-30T01:54:35;18.77;;;10.25;;
37955;SDS011;23776;51.592;7.180;2023-04-30T01:57:12;23.75;;;10.52;;
37955;SDS011;23776;51.592;7.180;2023-04-30T01:59:44;18.52;;;10.07;;
37955;SDS011;23776;51.592;7.180;2023-04-30T02:02:10;22.63;;;9.45;;
37955;SDS011;23776;51.592;7.180;2023-04-30T02:04:36;20.98;;;10.35;;
37955;SDS011;23776;51.592;7.180;2023-04-30T02:07:01;16.13;;;9.65;;
37955;SDS011;23776;51.592;7.180;2023-04-30T02:09:27;16.35;;;8.65;;
37955;SDS011;23776;51.592;7.180;2023-04-30T02:11:52;20.83;;;9.55;;
37955;SDS011;23776;51.592;7.180;2023-04-30T02:14:18;17.95;;;9.20;;
37955;SDS011;23776;51.592;7.180;2023-04-30T02:16:44;16.00;;;9.25;;
37955;SDS011;23776;51.592;7.180;2023-04-30T02:19:09;18.60;;;8.52;;
37955;SDS011;23776;51.592;7.180;2023-04-30T02:21:35;17.73;;;8.48;;
37955;SDS011;23776;51.592;7.180;2023-04-30T02:24:00;18.95;;;9.20;;
37955;SDS011;23776;51.592;7.180;2023-04-30T02:26:26;14.68;;;8.23;;
37955;SDS011;23776;51.592;7.180;2023-04-30T02:28:52;15.38;;;8.27;;
37955;SDS011;23776;51.592;7.180;2023-04-30T02:31:17;15.63;;;8.10;;
37955;SDS011;23776;51.592;7.180;2023-04-30T02:33:43;15.40;;;7.25;;
37955;SDS011;23776;51.592;7.180;2023-04-30T02:36:08;14.68;;;7.90;;
37955;SDS011;23776;51.592;7.180;2023-04-30T02:38:34;17.08;;;8.52;;
37955;SDS011;23776;51.592;7.180;2023-04-30T02:41:00;16.00;;;8.88;;
37955;SDS011;23776;51.592;7.180;2023-04-30T02:43:26;17.05;;;8.98;;
37955;SDS011;23776;51.592;7.180;2023-04-30T02:45:51;18.67;;;9.65;;
37955;SDS011;23776;51.592;7.180;2023-04-30T02:48:17;16.83;;;9.55;;
37955;SDS011;23776;51.592;7.180;2023-04-30T02:50:42;18.05;;;9.25;;
37955;SDS011;23776;51.592;7.180;2023-04-30T02:53:08;20.45;;;11.27;;
37955;SDS011;23776;51.592;7.180;2023-04-30T02:55:33;19.50;;;9.55;;
37955;SDS011;23776;51.592;7.180;2023-04-30T02:57:59;23.35;;;12.57;;
37955;SDS011;23776;51.592;7.180;2023-04-30T03:00:25;21.30;;;10.40;;
37955;SDS011;23776;51.592;7.180;2023-04-30T03:02:51;18.48;;;10.48;;
37955;SDS011;23776;51.592;7.180;2023-04-30T03:05:16;21.63;;;10.73;;
37955;SDS011;23776;51.592;7.180;2023-04-30T03:07:42;21.77;;;11.45;;
37955;SDS011;23776;51.592;7.180;2023-04-30T03:10:07;17.48;;;9.77;;
37955;SDS011;23776;51.592;7.180;2023-04-30T03:12:33;20.17;;;10.95;;
37955;SDS011;23776;51.592;7.180;2023-04-30T03:14:59;21.65;;;11.38;;
37955;SDS011;23776;51.592;7.180;2023-04-30T03:17:24;19.17;;;10.90;;
37955;SDS011;23776;51.592;7.180;2023-04-30T03:19:50;26.42;;;11.65;;
37955;SDS011;23776;51.592;7.180;2023-04-30T03:22:16;22.73;;;11.10;;
37955;SDS011;23776;51.592;7.180;2023-04-30T03:24:43;22.27;;;12.25;;
37955;SDS011;23776;51.592;7.180;2023-04-30T03:27:09;21.17;;;10.90;;
37955;SDS011;23776;51.592;7.180;2023-04-30T03:29:35;20.75;;;10.80;;
37955;SDS011;23776;51.592;7.180;2023-04-30T03:32:00;20.55;;;10.85;;
37955;SDS011;23776;51.592;7.180;2023-04-30T03:34:26;22.65;;;11.07;;
37955;SDS011;23776;51.592;7.180;2023-04-30T03:36:51;25.50;;;12.48;;
37955;SDS011;23776;51.592;7.180;2023-04-30T03:39:17;22.83;;;12.10;;
37955;SDS011;23776;51.592;7.180;2023-04-30T03:41:43;23.92;;;11.95;;
37955;SDS011;23776;51.592;7.180;2023-04-30T03:44:08;23.73;;;11.70;;
37955;SDS011;23776;51.592;7.180;2023-04-30T03:46:39;25.75;;;11.95;;
37955;SDS011;23776;51.592;7.180;2023-04-30T03:49:08;24.42;;;12.50;;
37955;SDS011;23776;51.592;7.180;2023-04-30T03:51:34;29.58;;;14.02;;
37955;SDS011;23776;51.592;7.180;2023-04-30T03:54:04;24.80;;;13.13;;
37955;SDS011;23776;51.592;7.180;2023-04-30T03:56:31;25.02;;;13.90;;
37955;SDS011;23776;51.592;7.180;2023-04-30T03:59:00;29.42;;;13.65;;
37955;SDS011;23776;51.592;7.180;2023-04-30T04:01:26;28.52;;;14.23;;
37955;SDS011;23776;51.592;7.180;2023-04-30T04:03:53;27.73;;;14.88;;
37955;SDS011;23776;51.592;7.180;2023-04-30T04:06:18;30.08;;;13.98;;
37955;SDS011;23776;51.592;7.180;2023-04-30T04:08:44;32.90;;;15.93;;
37955;SDS011;23776;51.592;7.180;2023-04-30T04:11:10;28.52;;;15.00;;
37955;SDS011;23776;51.592;7.180;2023-04-30T04:13:36;34.00;;;17.08;;
37955;SDS011;23776;51.592;7.180;2023-04-30T04:16:02;32.63;;;15.05;;
37955;SDS011;23776;51.592;7.180;2023-04-30T04:18:28;32.05;;;15.65;;
37955;SDS011;23776;51.592;7.180;2023-04-30T04:20:54;30.88;;;16.70;;
37955;SDS011;23776;51.592;7.180;2023-04-30T04:23:20;30.98;;;15.93;;
37955;SDS011;23776;51.592;7.180;2023-04-30T04:25:46;31.70;;;16.42;;
37955;SDS011;23776;51.592;7.180;2023-04-30T04:28:13;29.25;;;16.48;;
37955;SDS011;23776;51.592;7.180;2023-04-30T04:30:40;27.00;;;15.43;;
37955;SDS011;23776;51.592;7.180;2023-04-30T04:33:05;27.83;;;16.88;;
37955;SDS011;23776;51.592;7.180;2023-04-30T04:35:31;27.50;;;15.80;;
37955;SDS011;23776;51.592;7.180;2023-04-30T04:37:57;28.75;;;15.32;;
37955;SDS011;23776;51.592;7.180;2023-04-30T04:40:23;32.20;;;15.18;;
37955;SDS011;23776;51.592;7.180;2023-04-30T04:42:49;26.38;;;14.45;;
37955;SDS011;23776;51.592;7.180;2023-04-30T04:45:16;28.05;;;14.98;;
37955;SDS011;23776;51.592;7.180;2023-04-30T04:47:41;26.33;;;14.80;;
37955;SDS011;23776;51.592;7.180;2023-04-30T04:50:07;32.42;;;15.75;;
37955;SDS011;23776;51.592;7.180;2023-04-30T04:52:33;31.27;;;14.68;;
37955;SDS011;23776;51.592;7.180;2023-04-30T04:54:59;26.25;;;14.27;;
37955;SDS011;23776;51.592;7.180;2023-04-30T04:57:24;31.17;;;15.63;;
37955;SDS011;23776;51.592;7.180;2023-04-30T04:59:50;27.95;;;14.88;;
37955;SDS011;23776;51.592;7.180;2023-04-30T05:02:16;27.30;;;14.35;;
37955;SDS011;23776;51.592;7.180;2023-04-30T05:04:41;27.48;;;14.98;;
37955;SDS011;23776;51.592;7.180;2023-04-30T05:07:07;29.58;;;16.48;;
37955;SDS011;23776;51.592;7.180;2023-04-30T05:09:32;24.83;;;14.50;;
37955;SDS011;23776;51.592;7.180;2023-04-30T05:11:58;29.75;;;14.50;;
37955;SDS011;23776;51.592;7.180;2023-04-30T05:14:23;26.60;;;14.23;;
37955;SDS011;23776;51.592;7.180;2023-04-30T05:16:49;26.10;;;15.55;;
37955;SDS011;23776;51.592;7.180;2023-04-30T05:19:14;27.50;;;14.15;;
37955;SDS011;23776;51.592;7.180;2023-04-30T05:21:40;25.90;;;14.43;;
37955;SDS011;23776;51.592;7.180;2023-04-30T05:24:06;23.38;;;12.95;;
37955;SDS011;23776;51.592;7.180;2023-04-30T05:26:31;24.65;;;13.27;;
37955;SDS011;23776;51.592;7.180;2023-04-30T05:28:57;31.80;;;14.30;;
37955;SDS011;23776;51.592;7.180;2023-04-30T05:31:22;24.80;;;13.55;;
37955;SDS011;23776;51.592;7.180;2023-04-30T05:33:48;27.75;;;14.07;;
37955;SDS011;23776;51.592;7.180;2023-04-30T05:36:14;26.85;;;13.82;;
37955;SDS011;23776;51.592;7.180;2023-04-30T05:38:39;30.73;;;14.10;;
37955;SDS011;23776;51.592;7.180;2023-04-30T05:41:06;25.80;;;13.77;;
37955;SDS011;23776;51.592;7.180;2023-04-30T05:43:31;26.98;;;13.98;;
37955;SDS011;23776;51.592;7.180;2023-04-30T05:45:57;25.77;;;13.02;;
37955;SDS011;23776;51.592;7.180;2023-04-30T05:48:23;26.00;;;13.48;;
37955;SDS011;23776;51.592;7.180;2023-04-30T05:50:48;24.65;;;12.45;;
37955;SDS011;23776;51.592;7.180;2023-04-30T05:53:14;24.00;;;13.60;;
37955;SDS011;23776;51.592;7.180;2023-04-30T05:55:39;23.92;;;12.80;;
37955;SDS011;23776;51.592;7.180;2023-04-30T05:58:05;33.15;;;13.57;;
37955;SDS011;23776;51.592;7.180;2023-04-30T06:00:31;23.10;;;12.50;;
37955;SDS011;23776;51.592;7.180;2023-04-30T06:02:56;30.88;;;13.82;;
37955;SDS011;23776;51.592;7.180;2023-04-30T06:05:22;24.15;;;12.55;;
37955;SDS011;23776;51.592;7.180;2023-04-30T06:07:47;22.77;;;11.55;;
37955;SDS011;23776;51.592;7.180;2023-04-30T06:10:13;29.27;;;12.50;;
37955;SDS011;23776;51.592;7.180;2023-04-30T06:12:38;22.13;;;11.30;;
37955;SDS011;23776;51.592;7.180;2023-04-30T06:15:04;22.48;;;11.65;;
37955;SDS011;23776;51.592;7.180;2023-04-30T06:17:30;26.02;;;11.98;;
37955;SDS011;23776;51.592;7.180;2023-04-30T06:19:56;23.13;;;11.52;;
37955;SDS011;23776;51.592;7.180;2023-04-30T06:22:24;25.55;;;12.15;;
37955;SDS011;23776;51.592;7.180;2023-04-30T06:24:50;31.10;;;11.98;;
37955;SDS011;23776;51.592;7.180;2023-04-30T06:27:16;22.02;;;11.25;;
37955;SDS011;23776;51.592;7.180;2023-04-30T06:29:42;19.02;;;10.77;;
37955;SDS011;23776;51.592;7.180;2023-04-30T06:32:07;22.88;;;9.45;;
37955;SDS011;23776;51.592;7.180;2023-04-30T06:34:33;20.50;;;10.20;;
37955;SDS011;23776;51.592;7.180;2023-04-30T06:36:58;20.20;;;9.55;;
37955;SDS011;23776;51.592;7.180;2023-04-30T06:39:24;18.05;;;10.23;;
37955;SDS011;23776;51.592;7.180;2023-04-30T06:41:50;20.85;;;10.23;;
37955;SDS011;23776;51.592;7.180;2023-04-30T06:44:16;18.65;;;9.73;;
37955;SDS011;23776;51.592;7.180;2023-04-30T06:46:42;21.15;;;10.02;;
37955;SDS011;23776;51.592;7.180;2023-04-30T06:49:08;22.40;;;9.63;;
37955;SDS011;23776;51.592;7.180;2023-04-30T06:51:34;20.92;;;8.75;;
37955;SDS011;23776;51.592;7.180;2023-04-30T06:53:59;18.55;;;9.80;;
37955;SDS011;23776;51.592;7.180;2023-04-30T06:56:25;18.73;;;9.10;;
37955;SDS011;23776;51.592;7.180;2023-04-30T06:58:50;18.30;;;9.35;;
37955;SDS011;23776;51.592;7.180;2023-04-30T07:01:16;19.70;;;8.90;;
37955;SDS011;23776;51.592;7.180;2023-04-30T07:03:41;16.63;;;9.00;;
37955;SDS011;23776;51.592;7.180;2023-04-30T07:06:07;17.75;;;8.88;;
37955;SDS011;23776;51.592;7.180;2023-04-30T07:08:32;18.27;;;8.93;;
37955;SDS011;23776;51.592;7.180;2023-04-30T07:10:58;18.02;;;8.80;;
37955;SDS011;23776;51.592;7.180;2023-04-30T07:13:23;20.63;;;9.73;;
37955;SDS011;23776;51.592;7.180;2023-04-30T07:15:49;18.95;;;8.48;;
37955;SDS011;23776;51.592;7.180;2023-04-30T07:18:15;19.45;;;7.95;;
37955;SDS011;23776;51.592;7.180;2023-04-30T07:20:41;18.83;;;8.60;;
37955;SDS011;23776;51.592;7.180;2023-04-30T07:23:06;16.42;;;8.57;;
37955;SDS011;23776;51.592;7.180;2023-04-30T07:25:33;18.95;;;8.82;;
37955;SDS011;23776;51.592;7.180;2023-04-30T07:27:58;20.80;;;8.57;;
37955;SDS011;23776;51.592;7.180;2023-04-30T07:30:24;19.13;;;7.95;;
37955;SDS011;23776;51.592;7.180;2023-04-30T07:32:50;16.25;;;8.43;;
37955;SDS011;23776;51.592;7.180;2023-04-30T07:35:15;15.68;;;8.15;;
37955;SDS011;23776;51.592;7.180;2023-04-30T07:37:41;15.93;;;8.48;;
37955;SDS011;23776;51.592;7.180;2023-04-30T07:40:08;18.98;;;8.77;;
37955;SDS011;23776;51.592;7.180;2023-04-30T07:42:37;15.18;;;8.10;;
37955;SDS011;23776;51.592;7.180;2023-04-30T07:45:05;16.80;;;8.35;;
37955;SDS011;23776;51.592;7.180;2023-04-30T07:47:31;15.82;;;8.30;;
37955;SDS011;23776;51.592;7.180;2023-04-30T07:49:56;17.77;;;8.60;;
37955;SDS011;23776;51.592;7.180;2023-04-30T07:52:22;15.80;;;8.77;;
37955;SDS011;23776;51.592;7.180;2023-04-30T07:54:48;15.05;;;7.88;;
37955;SDS011;23776;51.592;7.180;2023-04-30T07:57:14;16.08;;;8.07;;
37955;SDS011;23776;51.592;7.180;2023-04-30T07:59:40;16.30;;;8.10;;
37955;SDS011;23776;51.592;7.180;2023-04-30T08:02:06;14.65;;;7.85;;
37955;SDS011;23776;51.592;7.180;2023-04-30T08:04:32;18.45;;;8.02;;
37955;SDS011;23776;51.592;7.180;2023-04-30T08:06:58;17.98;;;8.05;;
37955;SDS011;23776;51.592;7.180;2023-04-30T08:09:23;13.65;;;7.53;;
37955;SDS011;23776;51.592;7.180;2023-04-30T08:11:49;13.80;;;7.72;;
37955;SDS011;23776;51.592;7.180;2023-04-30T08:14:15;17.45;;;8.30;;
37955;SDS011;23776;51.592;7.180;2023-04-30T08:16:40;14.68;;;8.07;;
37955;SDS011;23776;51.592;7.180;2023-04-30T08:19:06;18.77;;;8.90;;
37955;SDS011;23776;51.592;7.180;2023-04-30T08:21:31;14.32;;;7.25;;
37955;SDS011;23776;51.592;7.180;2023-04-30T08:23:57;15.07;;;6.15;;
37955;SDS011;23776;51.592;7.180;2023-04-30T08:26:23;13.90;;;7.25;;
37955;SDS011;23776;51.592;7.180;2023-04-30T08:28:49;12.85;;;7.20;;
37955;SDS011;23776;51.592;7.180;2023-04-30T08:31:16;18.02;;;7.90;;
37955;SDS011;23776;51.592;7.180;2023-04-30T08:33:41;14.45;;;8.15;;
37955;SDS011;23776;51.592;7.180;2023-04-30T08:36:07;15.95;;;7.18;;
37955;SDS011;23776;51.592;7.180;2023-04-30T08:38:33;15.95;;;7.85;;
37955;SDS011;23776;51.592;7.180;2023-04-30T08:41:04;18.08;;;8.77;;
37955;SDS011;23776;51.592;7.180;2023-04-30T08:43:37;16.85;;;8.13;;
37955;SDS011;23776;51.592;7.180;2023-04-30T08:46:04;18.75;;;8.20;;
37955;SDS011;23776;51.592;7.180;2023-04-30T08:48:30;15.32;;;8.23;;
37955;SDS011;23776;51.592;7.180;2023-04-30T08:51:00;17.20;;;7.22;;
37955;SDS011;23776;51.592;7.180;2023-04-30T08:53:26;15.60;;;7.82;;
37955;SDS011;23776;51.592;7.180;2023-04-30T08:55:53;16.58;;;7.45;;
37955;SDS011;23776;51.592;7.180;2023-04-30T08:58:18;14.27;;;7.10;;
37955;SDS011;23776;51.592;7.180;2023-04-30T09:00:44;15.45;;;7.35;;
37955;SDS011;23776;51.592;7.180;2023-04-30T09:03:09;16.95;;;7.28;;
37955;SDS011;23776;51.592;7.180;2023-04-30T09:05:35;12.32;;;6.50;;
37955;SDS011;23776;51.592;7.180;2023-04-30T09:08:02;14.63;;;6.88;;
37955;SDS011;23776;51.592;7.180;2023-04-30T09:10:30;15.27;;;6.50;;
37955;SDS011;23776;51.592;7.180;2023-04-30T09:12:57;9.73;;;6.00;;
37955;SDS011;23776;51.592;7.180;2023-04-30T09:15:31;13.95;;;7.22;;
37955;SDS011;23776;51.592;7.180;2023-04-30T09:18:13;14.93;;;5.85;;
37955;SDS011;23776;51.592;7.180;2023-04-30T09:21:02;15.40;;;7.03;;
37955;SDS011;23776;51.592;7.180;2023-04-30T09:23:28;10.68;;;6.10;;
37955;SDS011;23776;51.592;7.180;2023-04-30T09:25:54;8.82;;;5.97;;
37955;SDS011;23776;51.592;7.180;2023-04-30T09:28:21;11.10;;;6.03;;
37955;SDS011;23776;51.592;7.180;2023-04-30T09:30:51;19.40;;;7.32;;
37955;SDS011;23776;51.592;7.180;2023-04-30T09:33:17;14.70;;;6.80;;
37955;SDS011;23776;51.592;7.180;2023-04-30T09:35:43;14.30;;;7.18;;
37955;SDS011;23776;51.592;7.180;2023-04-30T09:40:56;10.70;;;6.22;;
37955;SDS011;23776;51.592;7.180;2023-04-30T09:43:23;9.57;;;5.40;;
37955;SDS011;23776;51.592;7.180;2023-04-30T09:45:49;9.20;;;5.82;;
37955;SDS011;23776;51.592;7.180;2023-04-30T09:48:16;8.93;;;5.65;;
37955;SDS011;23776;51.592;7.180;2023-04-30T09:50:47;9.65;;;5.90;;
37955;SDS011;23776;51.592;7.180;2023-04-30T09:53:13;9.50;;;5.35;;
37955;SDS011;23776;51.592;7.180;2023-04-30T09:55:42;12.07;;;6.35;;
37955;SDS011;23776;51.592;7.180;2023-04-30T09:58:09;10.38;;;4.97;;
37955;SDS011;23776;51.592;7.180;2023-04-30T10:00:36;9.80;;;5.07;;
37955;SDS011;23776;51.592;7.180;2023-04-30T10:03:04;9.00;;;5.55;;
37955;SDS011;23776;51.592;7.180;2023-04-30T10:05:41;13.20;;;5.30;;
37955;SDS011;23776;51.592;7.180;2023-04-30T10:08:19;8.88;;;4.57;;
37955;SDS011;23776;51.592;7.180;2023-04-30T10:10:57;7.88;;;4.60;;
37955;SDS011;23776;51.592;7.180;2023-04-30T10:13:27;14.68;;;8.70;;
37955;SDS011;23776;51.592;7.180;2023-04-30T10:16:10;19.60;;;11.43;;
37955;SDS011;23776;51.592;7.180;2023-04-30T10:18:42;13.75;;;8.43;;
37955;SDS011;23776;51.592;7.180;2023-04-30T10:21:13;10.40;;;5.63;;
37955;SDS011;23776;51.592;7.180;2023-04-30T10:23:41;9.63;;;5.45;;
37955;SDS011;23776;51.592;7.180;2023-04-30T10:26:11;11.55;;;5.32;;
37955;SDS011;23776;51.592;7.180;2023-04-30T10:28:40;10.40;;;5.70;;
37955;SDS011;23776;51.592;7.180;2023-04-30T10:31:06;9.02;;;5.28;;
37955;SDS011;23776;51.592;7.180;2023-04-30T10:33:43;7.45;;;4.70;;
37955;SDS011;23776;51.592;7.180;2023-04-30T10:36:30;8.70;;;5.60;;
37955;SDS011;23776;51.592;7.180;2023-04-30T10:39:06;7.25;;;4.10;;
37955;SDS011;23776;51.592;7.180;2023-04-30T10:41:32;6.10;;;4.40;;
37955;SDS011;23776;51.592;7.180;2023-04-30T10:44:00;6.88;;;4.18;;
37955;SDS011;23776;51.592;7.180;2023-04-30T10:46:26;8.85;;;4.55;;
37955;SDS011;23776;51.592;7.180;2023-04-30T10:48:52;7.35;;;3.60;;
37955;SDS011;23776;51.592;7.180;2023-04-30T10:51:19;7.65;;;4.03;;
37955;SDS011;23776;51.592;7.180;2023-04-30T10:53:46;10.02;;;3.90;;
37955;SDS011;23776;51.592;7.180;2023-04-30T10:56:28;10.00;;;4.53;;
37955;SDS011;23776;51.592;7.180;2023-04-30T10:58:57;5.60;;;3.45;;
37955;SDS011;23776;51.592;7.180;2023-04-30T11:01:25;5.30;;;2.88;;
37955;SDS011;23776;51.592;7.180;2023-04-30T11:04:08;6.80;;;3.35;;
37955;SDS011;23776;51.592;7.180;2023-04-30T11:06:48;6.60;;;3.90;;
37955;SDS011;23776;51.592;7.180;2023-04-30T11:09:39;6.90;;;2.97;;
37955;SDS011;23776;51.592;7.180;2023-04-30T11:12:10;8.23;;;3.22;;
37955;SDS011;23776;51.592;7.180;2023-04-30T11:14:43;6.93;;;3.03;;
37955;SDS011;23776;51.592;7.180;2023-04-30T11:17:20;5.65;;;2.90;;
37955;SDS011;23776;51.592;7.180;2023-04-30T11:19:48;6.28;;;2.83;;
37955;SDS011;23776;51.592;7.180;2023-04-30T11:22:16;3.75;;;2.50;;
37955;SDS011;23776;51.592;7.180;2023-04-30T11:24:49;6.13;;;2.30;;
37955;SDS011;23776;51.592;7.180;2023-04-30T11:27:24;3.97;;;2.20;;
37955;SDS011;23776;51.592;7.180;2023-04-30T11:29:51;7.82;;;3.10;;
37955;SDS011;23776;51.592;7.180;2023-04-30T11:32:18;6.03;;;2.58;;
37955;SDS011;23776;51.592;7.180;2023-04-30T11:34:45;6.82;;;2.85;;
37955;SDS011;23776;51.592;7.180;2023-04-30T11:37:12;9.00;;;2.40;;
37955;SDS011;23776;51.592;7.180;2023-04-30T11:39:41;3.42;;;2.20;;
37955;SDS011;23776;51.592;7.180;2023-04-30T11:42:07;6.65;;;2.83;;
37955;SDS011;23776;51.592;7.180;2023-04-30T11:44:32;3.75;;;2.63;;
37955;SDS011;23776;51.592;7.180;2023-04-30T11:46:58;5.57;;;2.60;;
37955;SDS011;23776;51.592;7.180;2023-04-30T11:49:25;5.88;;;2.70;;
37955;SDS011;23776;51.592;7.180;2023-04-30T11:51:51;4.40;;;2.35;;
37955;SDS011;23776;51.592;7.180;2023-04-30T11:54:17;6.53;;;3.17;;
37955;SDS011;23776;51.592;7.180;2023-04-30T11:56:46;4.93;;;3.47;;
37955;SDS011;23776;51.592;7.180;2023-04-30T11:59:13;8.50;;;3.67;;
37955;SDS011;23776;51.592;7.180;2023-04-30T12:01:39;4.63;;;2.80;;
37955;SDS011;23776;51.592;7.180;2023-04-30T12:04:05;6.97;;;3.50;;
37955;SDS011;23776;51.592;7.180;2023-04-30T12:06:31;5.60;;;2.90;;
37955;SDS011;23776;51.592;7.180;2023-04-30T12:08:57;7.60;;;2.90;;
37955;SDS011;23776;51.592;7.180;2023-04-30T12:11:26;5.28;;;2.60;;
37955;SDS011;23776;51.592;7.180;2023-04-30T12:14:13;4.90;;;2.45;;
37955;SDS011;23776;51.592;7.180;2023-04-30T12:19:15;4.50;;;2.20;;
37955;SDS011;23776;51.592;7.180;2023-04-30T12:21:42;6.50;;;2.50;;
37955;SDS011;23776;51.592;7.180;2023-04-30T12:24:10;3.40;;;2.13;;
37955;SDS011;23776;51.592;7.180;2023-04-30T12:26:37;4.35;;;2.17;;
37955;SDS011;23776;51.592;7.180;2023-04-30T12:29:04;4.70;;;2.20;;
37955;SDS011;23776;51.592;7.180;2023-04-30T12:31:32;3.65;;;2.13;;
37955;SDS011;23776;51.592;7.180;2023-04-30T12:34:01;4.82;;;2.00;;
37955;SDS011;23776;51.592;7.180;2023-04-30T12:36:35;6.28;;;2.53;;
37955;SDS011;23776;51.592;7.180;2023-04-30T12:39:07;3.70;;;1.67;;
37955;SDS011;23776;51.592;7.180;2023-04-30T12:41:40;6.65;;;1.70;;
37955;SDS011;23776;51.592;7.180;2023-04-30T12:46:45;5.45;;;2.05;;
37955;SDS011;23776;51.592;7.180;2023-04-30T12:49:11;2.47;;;1.85;;
37955;SDS011;23776;51.592;7.180;2023-04-30T12:52:00;3.90;;;1.60;;
37955;SDS011;23776;51.592;7.180;2023-04-30T12:54:32;2.63;;;1.40;;
37955;SDS011;23776;51.592;7.180;2023-04-30T12:57:03;4.32;;;1.67;;
37955;SDS011;23776;51.592;7.180;2023-04-30T12:59:30;2.97;;;1.30;;
37955;SDS011;23776;51.592;7.180;2023-04-30T13:02:06;4.95;;;1.95;;
37955;SDS011;23776;51.592;7.180;2023-04-30T13:04:35;4.07;;;1.70;;
37955;SDS011;23776;51.592;7.180;2023-04-30T13:07:01;3.70;;;1.95;;
37955;SDS011;23776;51.592;7.180;2023-04-30T13:09:27;5.13;;;1.98;;
37955;SDS011;23776;51.592;7.180;2023-04-30T13:11:53;5.00;;;1.80;;
37955;SDS011;23776;51.592;7.180;2023-04-30T13:14:19;3.20;;;1.90;;
37955;SDS011;23776;51.592;7.180;2023-04-30T13:16:44;4.55;;;1.92;;
37955;SDS011;23776;51.592;7.180;2023-04-30T13:19:10;3.28;;;1.73;;
37955;SDS011;23776;51.592;7.180;2023-04-30T13:21:36;3.13;;;1.42;;
37955;SDS011;23776;51.592;7.180;2023-04-30T13:24:02;5.28;;;1.20;;
37955;SDS011;23776;51.592;7.180;2023-04-30T13:26:28;4.97;;;1.65;;
37955;SDS011;23776;51.592;7.180;2023-04-30T13:28:53;2.42;;;1.25;;
37955;SDS011;23776;51.592;7.180;2023-04-30T13:31:19;3.50;;;1.40;;
37955;SDS011;23776;51.592;7.180;2023-04-30T13:33:46;5.03;;;1.88;;
37955;SDS011;23776;51.592;7.180;2023-04-30T13:36:12;3.35;;;1.60;;
37955;SDS011;23776;51.592;7.180;2023-04-30T13:38:37;6.20;;;1.80;;
37955;SDS011;23776;51.592;7.180;2023-04-30T13:41:03;4.95;;;1.77;;
37955;SDS011;23776;51.592;7.180;2023-04-30T13:43:29;3.47;;;1.55;;
37955;SDS011;23776;51.592;7.180;2023-04-30T13:45:55;2.58;;;1.67;;
37955;SDS011;23776;51.592;7.180;2023-04-30T13:48:22;4.18;;;1.85;;
37955;SDS011;23776;51.592;7.180;2023-04-30T13:50:48;6.13;;;1.80;;
37955;SDS011;23776;51.592;7.180;2023-04-30T13:53:15;3.17;;;1.35;;
37955;SDS011;23776;51.592;7.180;2023-04-30T13:55:41;4.47;;;1.55;;
37955;SDS011;23776;51.592;7.180;2023-04-30T13:58:07;3.13;;;1.23;;
37955;SDS011;23776;51.592;7.180;2023-04-30T14:00:32;3.08;;;1.40;;
37955;SDS011;23776;51.592;7.180;2023-04-30T14:02:58;4.22;;;1.30;;
37955;SDS011;23776;51.592;7.180;2023-04-30T14:05:24;2.85;;;1.40;;
37955;SDS011;23776;51.592;7.180;2023-04-30T14:07:49;4.82;;;1.50;;
37955;SDS011;23776;51.592;7.180;2023-04-30T14:10:15;4.47;;;1.40;;
37955;SDS011;23776;51.592;7.180;2023-04-30T14:12:41;2.80;;;1.20;;
37955;SDS011;23776;51.592;7.180;2023-04-30T14:15:06;3.67;;;1.40;;
37955;SDS011;23776;51.592;7.180;2023-04-30T14:17:34;2.50;;;1.17;;
37955;SDS011;23776;51.592;7.180;2023-04-30T14:19:59;4.18;;;1.42;;
37955;SDS011;23776;51.592;7.180;2023-04-30T14:22:25;2.30;;;1.02;;
37955;SDS011;23776;51.592;7.180;2023-04-30T14:24:51;1.67;;;1.00;;
37955;SDS011;23776;51.592;7.180;2023-04-30T14:27:17;3.30;;;1.13;;
37955;SDS011;23776;51.592;7.180;2023-04-30T14:29:43;6.90;;;1.33;;
37955;SDS011;23776;51.592;7.180;2023-04-30T14:32:09;3.00;;;1.25;;
37955;SDS011;23776;51.592;7.180;2023-04-30T14:34:36;4.50;;;1.60;;
37955;SDS011;23776;51.592;7.180;2023-04-30T14:37:02;4.75;;;3.85;;
37955;SDS011;23776;51.592;7.180;2023-04-30T14:39:28;2.63;;;1.50;;
37955;SDS011;23776;51.592;7.180;2023-04-30T14:41:54;2.90;;;1.65;;
37955;SDS011;23776;51.592;7.180;2023-04-30T14:44:20;2.72;;;1.40;;
37955;SDS011;23776;51.592;7.180;2023-04-30T14:46:48;2.88;;;1.33;;
37955;SDS011;23776;51.592;7.180;2023-04-30T14:49:14;2.58;;;1.23;;
37955;SDS011;23776;51.592;7.180;2023-04-30T14:51:40;5.72;;;1.52;;
37955;SDS011;23776;51.592;7.180;2023-04-30T14:54:06;3.92;;;1.33;;
37955;SDS011;23776;51.592;7.180;2023-04-30T14:56:31;3.97;;;1.30;;
37955;SDS011;23776;51.592;7.180;2023-04-30T14:58:57;3.20;;;1.33;;
37955;SDS011;23776;51.592;7.180;2023-04-30T15:01:23;2.65;;;1.48;;
37955;SDS011;23776;51.592;7.180;2023-04-30T15:03:48;2.72;;;1.08;;
37955;SDS011;23776;51.592;7.180;2023-04-30T15:06:14;1.70;;;1.25;;
37955;SDS011;23776;51.592;7.180;2023-04-30T15:08:40;2.08;;;1.20;;